METAR Data
IDs: Format: Raw Decoded Include TAF

Data at: 2051 UTC 18 Apr 2021

LRBC 182030Z 08002KT 9999 BKN065 07/06 Q1018 R16/19//95